Time,TemperatureF,DewpointF,PressureIn,WindDirection,WindDirectionDegrees,WindSpeedMPH,WindSpeedGustMPH,Humidity,HourlyPrecipIn,Conditions,Clouds,dailyrainin,SoftwareType,DateUTC
2013-08-21 00:14:00,76.0,76.0,30.02,North,0,0.0,0.0,99,0.00,,,1.33,,2013-08-21 04:14:00,
2013-08-21 00:24:00,76.0,76.0,30.02,North,0,0.0,0.0,99,0.00,,,1.19,,2013-08-21 04:24:00,
2013-08-21 00:54:00,76.0,76.0,30.02,North,0,0.0,0.0,99,0.00,,,0.86,,2013-08-21 04:54:00,
2013-08-21 01:23:00,75.0,75.0,30.01,North,0,0.0,0.0,99,0.00,,,0.78,,2013-08-21 05:23:00,
2013-08-21 01:52:00,75.0,75.0,30.00,North,0,0.0,0.0,99,0.00,,,0.59,,2013-08-21 05:52:00,
2013-08-21 02:22:00,75.0,75.0,30.00,North,0,0.0,0.0,99,0.00,,,0.59,,2013-08-21 06:22:00,
2013-08-21 02:52:00,75.0,75.0,30.00,North,0,0.0,0.0,99,0.00,,,0.59,,2013-08-21 06:52:00,
2013-08-21 03:22:00,74.0,74.0,30.00,North,0,0.0,0.0,99,0.00,,,0.59,,2013-08-21 07:22:00,
2013-08-21 03:53:00,74.0,74.0,29.99,North,0,0.0,0.0,99,0.00,,,0.59,,2013-08-21 07:53:00,
2013-08-21 04:22:00,74.0,74.0,29.99,North,0,0.0,0.0,99,0.00,,,0.59,,2013-08-21 08:22:00,
2013-08-21 04:53:00,74.0,74.0,30.00,North,0,0.0,0.0,99,0.00,,,0.59,,2013-08-21 08:53:00,
2013-08-21 05:22:00,74.0,74.0,29.99,North,0,0.0,0.0,99,0.00,,,0.59,,2013-08-21 09:22:00,
2013-08-21 05:54:00,74.0,74.0,30.00,North,0,0.0,0.0,99,0.00,,,0.59,,2013-08-21 09:54:00,
2013-08-21 06:23:00,74.0,74.0,30.00,North,0,0.0,0.0,99,0.00,,,0.59,,2013-08-21 10:23:00,
2013-08-21 06:53:00,74.0,74.0,30.00,North,0,0.0,0.0,99,0.00,,,0.59,,2013-08-21 10:53:00,
2013-08-21 07:22:00,74.0,74.0,30.01,North,0,0.0,0.0,99,0.00,,,0.59,,2013-08-21 11:22:00,
2013-08-21 07:53:00,74.0,74.0,30.02,North,0,0.0,0.0,99,0.00,,,0.59,,2013-08-21 11:53:00,
2013-08-21 08:22:00,75.0,75.0,30.03,North,0,0.0,0.0,99,0.00,,,0.59,,2013-08-21 12:22:00,
2013-08-21 08:52:00,76.0,76.0,30.03,West,270,0.0,1.0,99,0.01,,,0.60,,2013-08-21 12:52:00,
2013-08-21 09:21:00,78.0,78.0,30.04,North,0,0.0,0.0,99,0.01,,,0.60,,2013-08-21 13:21:00,
2013-08-21 09:52:00,80.0,80.0,30.05,North,0,0.0,0.0,99,0.00,,,0.60,,2013-08-21 13:52:00,
2013-08-21 10:21:00,82.0,82.0,30.05,North,0,0.0,0.0,99,0.00,,,0.60,,2013-08-21 14:21:00,
2013-08-21 10:52:00,81.0,81.0,30.06,West,270,0.0,3.0,99,0.00,,,0.60,,2013-08-21 14:52:00,
2013-08-21 11:22:00,78.0,78.0,30.07,NE,43,1.0,4.0,99,0.12,,,0.72,,2013-08-21 15:22:00,
2013-08-21 11:55:00,79.0,79.0,30.08,North,1,0.0,1.0,99,0.12,,,0.72,,2013-08-21 15:55:00,
2013-08-21 12:24:00,82.0,82.0,30.06,North,0,0.0,0.0,99,0.01,,,0.73,,2013-08-21 16:24:00,
2013-08-21 12:53:00,87.0,83.0,30.05,NNE,12,1.0,3.0,89,0.01,,,0.73,,2013-08-21 16:53:00,
2013-08-21 13:23:00,89.0,84.0,30.05,NNE,24,0.0,3.0,84,0.00,,,0.73,,2013-08-21 17:23:00,
2013-08-21 13:53:00,88.0,82.0,30.05,SSE,148,0.0,4.0,83,0.00,,,0.45,,2013-08-21 17:53:00,
2013-08-21 14:22:00,87.0,81.0,30.03,SE,128,1.0,5.0,83,0.00,,,0.44,,2013-08-21 18:22:00,
2013-08-21 14:52:00,84.0,80.0,30.03,East,96,0.0,1.0,89,0.01,,,0.20,,2013-08-21 18:52:00,
2013-08-21 15:22:00,83.0,81.0,30.03,North,0,0.0,0.0,93,0.01,,,0.15,,2013-08-21 19:22:00,
2013-08-21 15:52:00,83.0,81.0,30.03,SE,142,0.0,2.0,95,0.01,,,0.17,,2013-08-21 19:52:00,
2013-08-21 17:21:00,91.0,81.0,29.99,NE,49,0.0,4.0,72,0.00,,,0.17,,2013-08-21 21:21:00,
2013-08-21 17:55:00,89.0,80.0,29.99,ESE,112,0.0,3.0,75,0.00,,,0.17,,2013-08-21 21:55:00,
2013-08-21 18:24:00,86.0,79.0,30.00,SE,139,0.0,2.0,80,0.00,,,0.17,,2013-08-21 22:24:00,
2013-08-21 18:53:00,84.0,78.0,30.00,North,0,0.0,0.0,83,0.00,,,0.17,,2013-08-21 22:53:00,
2013-08-21 19:22:00,83.0,78.0,30.00,North,0,0.0,0.0,86,0.00,,,0.17,,2013-08-21 23:22:00,
2013-08-21 19:53:00,82.0,78.0,29.99,North,0,0.0,0.0,88,0.00,,,0.17,,2013-08-21 23:53:00,
2013-08-21 20:22:00,81.0,78.0,29.99,North,0,0.0,0.0,90,0.00,,,0.17,,2013-08-22 00:22:00,
2013-08-21 20:52:00,80.0,78.0,29.99,North,0,0.0,0.0,93,0.00,,,0.17,,2013-08-22 00:52:00,
2013-08-21 21:22:00,79.0,77.0,29.99,North,0,0.0,0.0,95,0.00,,,0.17,,2013-08-22 01:22:00,
2013-08-21 21:52:00,78.0,77.0,30.00,North,0,0.0,0.0,97,0.00,,,0.17,,2013-08-22 01:52:00,
2013-08-21 22:22:00,78.0,77.0,30.01,North,0,0.0,0.0,98,0.00,,,0.17,,2013-08-22 02:22:00,
2013-08-21 23:22:00,77.0,77.0,30.02,North,0,0.0,0.0,99,0.00,,,0.17,,2013-08-22 03:22:00,
2013-08-21 23:54:00,77.0,77.0,30.01,North,0,0.0,0.0,99,0.00,,,0.17,,2013-08-22 03:54:00,